Main page
METAR-TAF:

METAR-TAF

Airports :

Worthington Municipal Airport

Worthington, Minnesota, United States

latitude: 43-39N, longitude: 095-35W, elevation: 1574 ft

Current weather observation

The report was made 51 minutes ago, at 15:56 UTC
Wind 24 mph from the South/Southwest with gusts up to 32 mph
Temperature 64°F
Humidity 59%
Pressure 29.80 in. Hg
Clear sky

METAR: KOTG 251556Z AUTO 20021G28KT CLR 18/10 A2980 RMK AO2 PK WND 22029/1536 SLP094 T01830100 PWINO $

Time: 11:47 (16:47 UTC)


TAF: missing

Weather observations and forecasts of more than 4000 airports (METAR and TAF reports).

The available stations are represented by yellow and red dots on the map.

Hover mouse over dot to see the name of the station.

Then click to see weather observations and forecasts.

To change the map : click on the green buttons with a black cross to zoom in, on the green button with a dash to zoom out, or on the green arrows for adjacent maps.


METAR-TAF: